Recent Files

ID Timestamp Filename MD5 VT MalScore Status
5975 2020-01-28 10:15:15 activator.cmd bbf5f35086566ad39c0fc72b3e4a1f6b 11/57 10.0 reported
5974 2020-01-28 06:42:52 photoshopcs6.reg d01bf97f0be7efee10a9dcc0f530758d None 2.3 reported
5973 2020-01-28 02:59:19 tpw.exe a9d0fb2683ef0e24939f71b7fd31bacc None 0.3 reported
5972 2020-01-28 01:36:46 gpuz_installer.exe 504fa8a95df62cd963caa99b4e253b02 0/58 2.6 reported
5971 2020-01-27 14:25:17 hash.exe 5ed9d3341034c227b46a2b393b1b70bd 1/70 3.3 reported
5970 2020-01-27 05:53:07 setup.exe 93e10ce671f38da17b1ce62a61665827 None 4.4 reported
5969 2020-01-27 04:42:59 glary-utilities-pro-v5x.exe 76da9f26df72c0e390a37d8496333ed7 2/71 3.3 reported
5968 2020-01-27 03:55:30 conhost.exe eaa3ee12b2caa0365f2b4d495b50ad22 0/70 0.0 reported
5967 2020-01-27 03:55:15 hostname.exe 7ef4ab28a28cd09123dc204b96f589e4 0/72 0.0 reported
5966 2020-01-27 03:54:30 conhost.exe eaa3ee12b2caa0365f2b4d495b50ad22 0/70 0.0 reported
5965 2020-01-27 03:53:54 hostname.exe 7ef4ab28a28cd09123dc204b96f589e4 0/72 0.0 reported
5964 2020-01-27 03:48:42 hostname.exe 7ef4ab28a28cd09123dc204b96f589e4 0/72 0.0 reported
5963 2020-01-27 03:28:45 hostname.exe 7ef4ab28a28cd09123dc204b96f589e4 0/72 0.0 reported
5962 2020-01-27 03:28:39 cmd.exe 622d21c40a25f9834a03bfd5ff4710c1 0/70 0.0 reported
5961 2020-01-27 03:26:21 hostname.exe 7ef4ab28a28cd09123dc204b96f589e4 0/72 0.0 reported
5960 2020-01-27 03:22:12 cmd.exe 622d21c40a25f9834a03bfd5ff4710c1 0/70 0.0 reported
5959 2020-01-27 03:19:32 custom_script7516637660083768688.cmd 1fc4014730a15090389948e4f80ba505 None 2.3 reported
5958 2020-01-27 03:17:02 hostname.exe 7ef4ab28a28cd09123dc204b96f589e4 0/72 0.0 reported
5957 2020-01-27 03:16:53 hostname.exe 7ef4ab28a28cd09123dc204b96f589e4 0/72 0.0 reported
5956 2020-01-26 21:15:20 pssb3b0.ps1 477a987d8051e8e54e5fb46969cbe3df None 2.3 reported
5955 2020-01-26 20:57:22 firefox.exe 32ead83951f217d2858678d3957b137a 0/72 1.0 reported
5954 2020-01-26 18:23:04 megadownloader_v1.7.exe 306a2c734ff990c4801932d7afa53df3 1/72 4.1 reported
5953 2020-01-26 09:56:11 smart-defragsetup.exe a8e0ea25c568bf24796d489f3f4d302c 5/71 5.4 reported
5952 2020-01-25 17:38:57 windowskeyfinder.exe 99d2176b010ed9173e2df94dd12c5b5e 1/70 6.2 reported
5951 2020-01-25 10:03:11 windowskeyfinder.exe 99d2176b010ed9173e2df94dd12c5b5e 1/70 6.2 reported
5950 2020-01-25 07:13:45 ghostpress.exe 28084e53f6f26d11dc354f3b7191ccda 11/62 10.0 reported
5949 2020-01-25 06:44:18 unlocker1.9.2.exe 33408f35623dc5bb4a3bde09fa45f86b 25/72 10.0 reported
5948 2020-01-25 05:48:00 patch.exe a98cb5381dfc0eafb18252c0863e8bb1 54/70 10.0 reported
5947 2020-01-25 05:40:41 stalker-portal-player-v2.0.exe c6cb378e7592a58cb2a3d0dcd166ef40 29/70 10.0 reported
5946 2020-01-25 00:47:56 pestudio.exe 05916bfe3bca0ed6f4850e21ad37df00 15/70 10.0 reported
5945 2020-01-24 18:39:32 movavi-video-converter-premium.exe 64ea49404e3b4a1a0cf327fdf7377f4e 0/68 4.0 reported
5944 2020-01-24 16:27:46 start-emergency-kit-scanner.exe 1f1c4a93e3e524ccba21034c03e245f5 0/71 2.8 reported
5943 2020-01-24 15:21:15 honeyselectunlimited_2373036176.exe 6d009ac6c2b155aded9cb7f423f72ba6 13/68 10.0 reported
5942 2020-01-24 13:49:43 video-5 e330a4b2fc3bc8f063cd810dc936d588 0/57 2.3 reported
5941 2020-01-24 07:08:56 printkey-pro-v105.exe 79db4126272fb723754c7615a3e3d386 0/70 1.1 reported
5940 2020-01-24 07:06:37 signal-desktop-win-1.29.0.exe 57b6aaa43376dcfe55a40514f8697d73 0/67 6.1 reported
5939 2020-01-24 07:03:25 signal-desktop-win-1.29.0.exe 57b6aaa43376dcfe55a40514f8697d73 0/67 6.1 reported
5938 2020-01-24 00:07:56 drs-update.18761999.exe aa5d818d6ff0ad757d0da4a982b63f37 0/69 3.1 reported
5937 2020-01-23 18:03:03 win10actplus-1.0-setup.exe a6b25d5aab084373ce8c6418c516ac24 9/69 5.4 reported
5936 2020-01-23 16:35:37 studioone_keygen.exe 2ccfee38b30cf27813eeffc7d0d33ef8 49/70 10.0 reported
5935 2020-01-23 14:47:25 whoisconnectedsniffer.exe e4f57825261bc45aadcb80080acf01f0 0/71 1.0 reported
5934 2020-01-23 14:28:28 advancedbattoexeconverter.exe a6068700e258db6a1244c759a7db5f54 0/70 4.6 reported
5933 2020-01-22 17:00:01 I751581-230120.doc 5763b46b4d92d0c2a290b23d741ec54b 18/64 10.0 reported
5932 2020-01-22 12:48:08 msetup_x86.exe e6e9071268ca8aea90193ab3f46a3878 0/67 7.7 reported
5931 2020-01-22 11:26:38 onedrive.exe 57960d373d891d2d3d734008811bdb98 0/71 4.4 reported
5930 2020-01-22 06:21:07 nxpowerlite.exe 6badfe7eb54eeb8d6ff12b677b8e3901 0/69 2.0 reported
5929 2020-01-22 03:37:02 koc221_mhstc_2016-2020.xlsx feafe42428fb5a496b8ebd68d029251e None 2.3 reported
5928 2020-01-22 01:28:50 Keygen 7990c61e4f5fa980ea0379dfbbf45494 4/58 0.8 reported
5927 2020-01-21 13:42:44 mes_drivers_3.0.4.exe 50a5e891da27e63d54e68511e48aa026 10/71 8.6 reported
5926 2020-01-21 13:37:50 interface.lnk 811e59bc3053472ea128c4e7ff2450fc None 0.3 reported
5925 2020-01-21 11:33:06 patch-mduck.exe 37e428d2db23a8c824cc07d3739a9604 50/70 10.0 reported
5924 2020-01-21 11:27:54 setup CTemp+ with USB driver1-1-8.exe be9dfb94af73e0beea657e956710e800 1/69 10.0 reported
5923 2020-01-21 06:37:18 winlog.exe 6221259976b1182a877e0617b8ee3da6 17/72 10.0 reported
5922 2020-01-21 02:09:01 rf_installer.exe b43439eb3adf74a92114a14573bc1e91 0/69 3.1 reported
5921 2020-01-20 23:59:31 quicksat.exe 67c4301f272ce1012c95f2cf5943464d 1/62 2.8 reported
5920 2020-01-20 23:54:01 obsreduce.exe 4d9fd3e293d58fe76e5c8f5d7bd76739 0/61 0.3 reported
5919 2020-01-20 23:35:43 seesat.exe afb91b19f59ff93bfc32b0db261cdbfc None 2.3 reported
5918 2020-01-20 16:40:49 utweb_installer.exe 066e504797038b01fd6bc083ca0b0b8d 5/69 10.0 reported
5917 2020-01-20 16:10:17 bitcomet_setup.exe 6fb2cc70c684b294b3fa6a0db17d624d 22/72 10.0 reported
5916 2020-01-20 16:08:45 utweb_installer.exe 066e504797038b01fd6bc083ca0b0b8d 5/69 10.0 reported
5915 2020-01-20 16:03:29 processhacker.exe b365af317ae730a67c936f21432b9c71 17/70 10.0 reported
5914 2020-01-20 15:04:42 ascupgrade.exe b261f1bf76de8dc7872cf4927454a445 3/72 1.8 reported
5913 2020-01-20 13:07:22 tor.exe b751a3ae9c495c64590e0967ef865af3 0/69 0.0 reported
5912 2020-01-20 13:00:45 google.exe cb07a4ff2dc0a0d8b70982bf2514577f 5/70 3.1 reported
5911 2020-01-20 08:30:35 crack.exe 6a6f0959ee91afc0ed79d8d448f68ae9 39/70 10.0 reported
5910 2020-01-20 01:35:14 tmp.reg 40bbe9774663b477b632020b32842254 None 2.3 reported
5909 2020-01-19 16:34:00 onedrivestandaloneupdater.exe f70e7079b0e62a9b3cb05417afcff0fb 1/72 5.9 reported
5908 2020-01-19 13:21:17 sandboxieinstall-533-1.exe fd95e7df93ebc6a67799a118d5e449c4 1/69 7.6 reported
5907 2020-01-19 10:12:35 ctfmon.exe c0d57d7289c20b3b4d8680369394f188 0/73 0.0 reported
5906 2020-01-19 09:01:10 everythingserver.exe 34831ddc637988fa6d82a5e6f1f41968 1/73 2.8 reported
5905 2020-01-19 08:52:00 apex.exe e95902e7d5d70258fea31c28ed4d102e 4/69 3.8 reported
5904 2020-01-19 08:22:39 wmpnetwk.exe 3def9f612f190567cfdf45693fda8b5c 0/70 0.0 reported
5903 2020-01-19 08:17:39 conhost.exe 4e82fe72ecbf75794018ec897b6467b0 0/68 0.0 reported
5902 2020-01-19 06:21:34 msmpeng.exe d53dbcedc5d2c3993e66846d82be861b 0/73 0.0 reported
5901 2020-01-18 07:27:20 ezdicom.exe 629e547ad874252e804d0f0ac8c97985 0/71 4.8 reported
5900 2020-01-18 07:20:06 dcm2jpg.exe b58619921fd83d7270d1285124736ad8 0/69 4.8 reported
5899 2020-01-18 07:13:11 ksm_setup_1.1.2.3.exe affe21d752cf92c305d79c27c4da0b2e 0/68 3.6 reported
5898 2020-01-18 06:33:44 rebirth.exe 5c010da201ff855d4760088a63d5f926 1/70 4.1 reported
5897 2020-01-18 03:29:33 installnavi.exe 73a5094a147e54d5c74c87cafbfc24ff 0/67 3.3 reported
5896 2020-01-17 21:30:22 nec-pc-6001-roms-61_1a72b191e7.exe 6c36b6a3cc982448af88bcee41af5267 None 3.6 reported
5895 2020-01-17 21:27:36 r-studio-7.2-build-154989-network-edition.exe 5d4754b7f200ea8c6f649d32fb15fa9e 0/68 5.9 reported
5894 2020-01-17 20:23:29 dcm2jpg.exe b58619921fd83d7270d1285124736ad8 0/69 4.8 reported
5893 2020-01-17 20:11:23 junctionbox.exe 333b445d42d80fd3a725adeacbb802fd 2/70 4.4 reported
5892 2020-01-17 20:04:31 netresview.exe 7a0c1017e6b5bb5dc776b3b883a1d0e0 2/70 3.8 reported
5891 2020-01-17 19:51:37 eso.exe c2b20dc5880f9852ee15a13362f01204 1/70 5.1 reported
5890 2020-01-17 18:26:15 setup.exe 0ffe829c52f23a41c8ad9695b7d1f562 0/69 2.8 reported
5889 2020-01-17 18:13:59 setup-antimalware-1024.exe 0ffe829c52f23a41c8ad9695b7d1f562 0/69 2.8 reported
5888 2020-01-17 15:02:46 musette.exe 9a090ceed3de40f45d5b34a6378b07f7 0/55 4.8 reported
5887 2020-01-17 14:47:21 rlz.reg d05f13974b568d84223f7831941291ac None 2.3 reported
5886 2020-01-17 08:51:29 adwcleaner_8.0.1.exe 667a86dfb376486ce93ca6aa6572f22a 0/70 2.3 reported
5885 2020-01-16 19:40:06 ose.exe 58327b7e7c4e325c66b7c4a5220ce5f4 0/68 0.0 reported
5884 2020-01-16 19:41:13 controler.exe 28f922b9e41dafd1ae62e324d5e6f240 None 0.3 reported
5883 2020-01-16 19:08:08 n-l0ader.exe 1284a7fd40d2039229252c10c9eea297 None 5.6 reported
5882 2020-01-16 18:47:56 glasswiresetup.exe cc0ba242147e97b580d357c4ef37b1f4 0/67 4.1 reported
5881 2020-01-16 18:33:02 controler.exe 28f922b9e41dafd1ae62e324d5e6f240 None 0.3 reported
5880 2020-01-16 16:40:19 vdownloader.exe e4cd9f1232beea9c34b8aabbf06384c6 11/70 10.0 reported
5879 2020-01-16 13:18:53 donotspy10-5.1.0.0-setup.exe bec1e52683936d779f9a8c6a62ab1002 6/69 10.0 reported
5878 2020-01-16 11:30:49 teamviewerqs-1.exe 0b584f33a9a7cb5ffd7b3958bb62d896 0/70 8.8 reported
5877 2020-01-16 10:02:48 zumasetup.exe e39825ed9cbf0326e6b5d78e76b3f7d5 15/70 10.0 reported
5876 2020-01-16 08:05:29 poe-trades-companion.exe e413b5239bb0f50f0baf9f6b107a530c 7/68 8.1 reported
5875 2020-01-16 06:01:35 msi28b1.tmp 27a8c7ca6511869259555ddac7d7b690 None 2.8 reported
5874 2020-01-15 23:19:46 cylancedetectsetup.exe 055d7853531a430bf2f60002ca513f90 0/56 3.1 reported
5873 2020-01-15 23:18:32 youtubedownloadersetup272.exe f640813ffc280334b8e0f06b9a75991c 4/68 3.6 reported
5872 2020-01-15 10:47:15 anydesk.exe eb80f7bddb699784baa9fbf2941eaf4a 0/69 8.6 reported
5871 2020-01-15 10:44:58 anydesk.exe eb80f7bddb699784baa9fbf2941eaf4a 0/69 8.6 reported
5870 2020-01-15 01:09:11 ndf77fb.tmp 972f1076b1a70396a5f81955172984e3 None 2.3 reported
5869 2020-01-14 08:02:01 cyberfox.exe 7b5edcaa787f8b2f9e66b080d5396aef 0/67 0.0 reported
5868 2020-01-13 21:31:34 newactive.exe a2a941343d2dd382e0f7f697b8a14032 3/69 6.7 reported
5867 2020-01-13 21:21:29 msi29ed.tmp 4d6ecd1b22ec3f87f636254dea32882c None 2.8 reported
5866 2020-01-13 16:05:36 organic-product-profiles-2019.tif 54d95993dbcf305f8dc0fdc9cd8eca2c 0/57 2.3 reported
5865 2020-01-13 05:11:53 startinteleviewercd.exe 20efd94abc90f83d2eceaf52b9018b71 None 0.0 reported
5864 2020-01-12 13:53:08 hds_control_remove.vbs 4d22a72f58df16b9d30f3ba9cb09c60e None 2.3 reported
5863 2020-01-12 13:42:55 hds_control_remove.vbs 4d22a72f58df16b9d30f3ba9cb09c60e None 2.3 reported
5862 2020-01-12 12:42:46 glasswire-loader-installer.exe 178afca9a719b6db6ffe9c4f65de902b 53/71 10.0 reported
5861 2020-01-12 06:58:19 hotspot-setup.exe 260134ad229651bab9988981e206c044 0/71 3.6 reported
5860 2020-01-12 05:01:10 aktywacja.txt 3d74f71488f138fc37c6186e9e530853 0/56 2.3 reported
5859 2020-01-12 04:28:04 bsnes.exe 20a005a3f4e420012ea371d664a80ce6 0/70 0.0 reported
5858 2020-01-12 00:24:05 qtranslate.exe af2d8b99b94cf54a95ad963a703564a8 None 8.3 reported
5857 2020-01-11 23:27:22 utorrent-1.exe af232f6e79d20739a6ebd22dc839abaf 9/68 10.0 reported
5856 2020-01-11 20:28:25 swazz.exe 548f46aa638ed5c433d5314c7de11388 8/70 10.0 reported
5855 2020-01-11 18:04:49 windows-iso-downloader-78497-asystentpobierania_1356187689.exe af528f6be7290703f43bc1b41066df07 13/68 10.0 reported
5854 2020-01-11 17:55:18 winrar-12398-asystentpobierania_1720779426.exe af528f6be7290703f43bc1b41066df07 13/68 10.0 reported
5853 2020-01-11 16:18:18 wasecagentprov.exe 2c47bf0a7dfdf1592e7bcb467b95e9bf 0/70 0.0 reported
5852 2020-01-11 13:11:17 iushrun.exe 8d81e30d7fb0af5c1ea0042f6963ce17 8/66 9.3 reported
5851 2020-01-11 10:15:55 voluptas.exe 345e655bbc5c22cffb9cbb30de20fc9f None 4.7 reported
5850 2020-01-11 10:13:57 ransomware.unnamed_0.exe 96afc9cdef3c623e0c5420e339c57283 58/72 10.0 reported
5849 2020-01-11 10:05:34 7zipsetup.exe 02e0b78e2876087f678f070ed60e4c30 55/69 10.0 reported
5848 2020-01-11 09:58:52 bvckup2.exe 195aba31bff5ae8207ab480913b4e573 0/68 2.0 reported
5847 2020-01-11 07:56:49 dnsbench.exe af51a7986fb95093bb1d65a3b7ecb98a 9/69 10.0 reported
5846 2020-01-11 05:46:02 contas.exe 385a2a5f2a94cc447fd653a87f01eb2a None 0.3 reported
5845 2020-01-11 05:38:47 keygen.exe 22d490356c99fb422dac816b9c242a03 47/67 10.0 reported
5844 2020-01-11 05:36:35 right-click-enhancer-professional-setup.exe 7eb12bd67aae68de92e22e645c0a5267 0/68 3.6 reported
5843 2020-01-10 22:26:09 tswebclient_en_setup.exe acb5028593391cd60f069c8f75d94d04 3/66 2.1 reported
5842 2020-01-10 19:51:19 processhacker-2.39-setup.exe 54daad58cce5003bee58b28a4f465f49 17/69 10.0 reported
5841 2020-01-10 16:44:17 peanatomist.exe 42ae7df71afba3b253ebe9fd9d02eaad 7/69 4.6 reported
5840 2020-01-10 16:24:41 nvtark_free_setup.exe 5e39c98714510324980aee2a0e1e2ad5 0/69 3.6 reported
5839 2020-01-10 12:51:22 wiseregcleaner.exe da05d0a07216570f6e4bee420042e115 0/68 5.7 reported
5838 2020-01-10 06:05:49 iushrun.exe 8d81e30d7fb0af5c1ea0042f6963ce17 8/73 9.3 reported
5837 2020-01-10 00:55:04 profilliste.reg 8cf2d610f81de0f83dffa0cb44465101 None 2.3 reported
5836 2020-01-10 00:51:47 reboot-restore-rx-pro-formerly-drive-vaccine-11.2-build-2704894622.exe 2dcd7895e4c05bf25188ed00c5f44de8 None 2.9 reported
5835 2020-01-10 00:48:22 reboot-restore-rx-pro-formerly-drive-vaccine-11.2-build-2704894622.exe 2dcd7895e4c05bf25188ed00c5f44de8 None 2.9 reported
5834 2020-01-09 13:28:45 assaultcubeportable.exe 3aa9ee512b989734a9cc70105d7aad42 0/66 2.6 reported
5833 2020-01-09 13:07:32 msie9ce.tmp 4add3477ce5437e9cb0fa92488725bc4 1/69 3.3 reported
5832 2020-01-09 12:09:13 udc_device.json e31b61b5cf55ec909e2d6096f21a0f10 None 2.3 reported
5831 2020-01-08 20:46:32 movavi-video-converter-premium.exe 64ea49404e3b4a1a0cf327fdf7377f4e 0/68 10.0 reported
5830 2020-01-08 17:28:31 nvtark_free_setup.exe 5e39c98714510324980aee2a0e1e2ad5 0/69 3.6 reported
5829 2020-01-08 16:58:45 ace_chrome_native_messaging_host.exe f149780ff0f93621526fdcde3ccf4d47 0/55 2.3 reported
5828 2020-01-08 16:45:20 hr-1.exe 4c7a12d97900295a87ac6b40b8eb0acf 0/70 1.1 reported
5827 2020-01-08 16:45:19 hr-1.exe 4c7a12d97900295a87ac6b40b8eb0acf 0/70 1.1 reported
5826 2020-01-08 16:39:08 hr-1.exe 4c7a12d97900295a87ac6b40b8eb0acf 0/70 1.1 reported
5825 2020-01-08 13:40:36 msi7ea.tmp bb511c3380997230e4951222bfb94a43 0/71 4.4 reported
5824 2020-01-08 12:33:27 josephine.exe ede5ba2e0fbef0485cbc5aedf459a10d None 1.0 reported
5823 2020-01-08 04:25:44 Gimp-2.10.8_0835908183.exe 587a8dcbdc9a9cfac2cb62c57f3f231d 42/69 10.0 reported
5822 2020-01-07 22:13:32 n2cmi05w.exe a1d19de828d5a40040d88c2c6f2fba79 None 3.6 reported
5821 2020-01-07 14:46:05 filezilla_3.46.3_win64-setup.exe f092e89626e00320845d63c15dc73bdb 0/71 5.4 reported
5820 2020-01-07 14:43:05 filezilla_3.46.3_win64-setup.exe f092e89626e00320845d63c15dc73bdb 0/71 5.1 reported
5819 2020-01-07 14:09:11 filezilla_3.46.3_win64-setup.exe f092e89626e00320845d63c15dc73bdb 0/71 5.1 reported
5818 2020-01-07 05:01:10 test.pdf bd5b1805c6cb62ad485c62c2693c3efc 0/58 2.3 reported
5817 2020-01-06 16:56:26 hashmyfiles.exe edbf2c4a3b783dcda018eb84ad983672 2/69 5.8 reported
5816 2020-01-06 13:13:54 de 1d3262339940734390cd3f5d97b868b6 None 1.3 reported
5815 2020-01-06 12:51:47 execed7.tmp.bat 57638d03bc1247504aeb5e97a45f2ebc None 2.3 reported
5814 2020-01-06 01:34:33 pandownload.exe da69fd6736f8ea402893afa59806a4b2 2/73 6.8 reported
5813 2020-01-05 23:32:18 maiarsetup.exe 4e0fa969d1d4ff51c5450fb292d6833f 0/69 10.0 reported
5812 2020-01-05 22:58:17 ccsetup563.exe 037c93d6e729c43fab88e9180ca8c2d7 1/67 10.0 reported
5811 2020-01-05 12:07:28 vr401851.res 9f717699dbaf33d446899889fef8c9f8 14/68 10.0 reported
5810 2020-01-05 09:29:53 qbregcrack.exe eff9d5778351c150a29eb706db624272 25/72 10.0 reported
5809 2020-01-05 09:25:14 activate.exe 3fac2fc98b0a775046a149fe526afa14 45/68 10.0 reported
5808 2020-01-05 09:14:21 autoexec.nt 30475f091008e24550523515a023270d 0/58 2.3 reported
5807 2020-01-05 08:41:26 microsoft.photos.exe 5cef2657ac3e416848f70f52f3d87f90 0/71 0.0 reported
5806 2020-01-05 08:17:41 procexp.exe 9b4d42e312d1de22ec7c7c7442ed93a7 0/70 6.8 reported
5805 2020-01-05 08:07:38 facefoduninstaller.exe be95e7725c1411a6137cc7f43201efa4 0/71 0.0 reported
5804 2020-01-05 05:17:54 7z.exe f72aa427bac12b3382eae718124f6759 0/72 2.3 reported
5803 2020-01-05 04:12:26 startservices.cmd 8bd43e20fa396290a9c6a8b01ff6c876 0/57 2.3 reported
5802 2020-01-04 22:03:53 zemana-antimalware.lnk c642377620d92cece01505ff1a036afb None 2.3 reported
5801 2020-01-04 21:58:02 firefox.lnk ad3bfb8e8163e38e62658940ab83b80f None 2.3 reported
5800 2020-01-04 21:11:51 4113-fossil-fighters-usvenom_2307767342.exe 9a09187840b0628175e5537e834f2e80 25/73 10.0 reported
5799 2020-01-04 15:35:23 loot.installer.exe 2c85cddb46c7d1320f493b6ebc8c436b 1/68 3.1 reported
5798 2020-01-04 15:22:02 freemove.exe a3c9bc512f473acde715a9d1c926f6fd 0/70 3.1 reported
5797 2020-01-04 15:17:11 windows-sandbox-editor-v1.exe da50d11e7d29eaff87d504127b6029eb 6/70 8.8 reported
5796 2020-01-04 15:15:28 windows-sandbox-editor-v1.exe da50d11e7d29eaff87d504127b6029eb 6/70 8.8 reported
5795 2020-01-04 15:14:34 windows-sandbox-editor-v1.exe da50d11e7d29eaff87d504127b6029eb 6/70 8.8 reported
5794 2020-01-04 14:48:28 debotnet.exe d8a24e46cabbbe31896f5dc46ce9e3a7 7/73 4.6 reported
5793 2020-01-04 10:02:57 startservices.cmd 8bd43e20fa396290a9c6a8b01ff6c876 0/57 2.3 reported
5792 2020-01-03 09:45:02 recorder-devices-setup.exe 6c58996a4cf9774c831088aa21902849 2/71 8.6 reported
5791 2020-01-03 09:39:41 virustotaluploader2.2.exe b42739ecb0217f6624a3940e16cfc31c 0/70 2.3 reported
5790 2020-01-03 09:25:58 sharex-13.0.1-setup.exe 785e7f3259ba052ab999d0f3155466fc 0/68 3.6 reported
5789 2020-01-03 08:47:34 ninite-peazip-installer.exe 71b93449009d0f054b614962faef60e1 None 7.1 reported
5788 2020-01-03 08:39:45 aha.doc 0dd7707ae270bb7568daf0c0e2d0893a 12/61 10.0 reported
5787 2020-01-03 06:50:46 fscapturehelp.chm a2e74149f60c10f7b3cfea78ed29aa32 0/58 2.3 reported
5786 2020-01-03 06:42:04 uninst.exe 0b6607dd3f46a61ae5985552594292f3 0/71 7.1 reported
5785 2020-01-03 05:59:30 fscapture.exe cdf79dfcfa66211dfd4f7e7bc526de53 0/68 7.4 reported
5784 2020-01-03 05:54:54 freshclam.exe 887f0251035fecf66001651e8b0c5a99 0/71 0.3 reported
5783 2020-01-03 05:53:11 clamd.exe 3f182c6ef755b8e0cb06a8fc73c09b85 0/68 0.3 reported
5782 2020-01-03 05:35:47 wmpnetwk.exe 3def9f612f190567cfdf45693fda8b5c 0/69 0.0 reported
5781 2020-01-03 04:46:54 vb_generator_standalone.exe 08182f2f880f67a48ce6df3de79b0b3a 2/70 4.8 reported
5780 2020-01-03 04:03:05 mpam-b4bb7115.exe dac250ee5ddc28f447470b6a81168c26 None 1.0 reported
5779 2020-01-02 22:37:20 imfbigupgrade.exe f351c12b1d013ac53a1aa805e90af510 3/72 2.8 reported
5778 2020-01-02 17:48:42 windows-10.-7.8.1-8-pro-permanent-activator-upded-2018.exe b429147a964664ec783ac1b88d83c99c None 0.9 reported
5777 2020-01-02 17:44:32 heavensat.exe bf30d89e4646f4efecea227353c16afa 0/56 1.3 reported
5776 2020-01-02 16:53:39 nmr.exe 1fd40494995f5ea2e8c87d467611a42b 5/69 10.0 reported
5775 2020-01-02 12:18:17 noxsrv.exe e9166c8ad881b8152ecc3205c118946e 0/69 0.3 reported
5774 2020-01-02 11:39:45 adwlaunch.bat cbbdf02a9535241f5ffe92bb550f4f96 None 2.3 reported
5773 2020-01-02 11:37:42 adwlaunch.bat cbbdf02a9535241f5ffe92bb550f4f96 None 2.3 reported
5772 2020-01-02 11:33:44 uninstallpromote.exe edc8379809423d6b462d2ae3dc7dec9f 6/73 6.8 reported
5771 2020-01-02 10:39:43 techniclauncher.exe 9cc7c12cf7dfa33039a04b724bde1373 0/71 3.8 reported
5770 2020-01-02 09:43:20 atlauncher.exe 8f3cfde8b207701288d0421ee137eb2b 0/66 5.4 reported
5769 2020-01-02 09:16:13 bitcomet_portable_0219069695.exe 925768a5aefd3cec1fd3d35b2f311c3d 30/70 10.0 reported
5768 2020-01-02 08:18:38 7e0d.bat b8bc6b52be3c689fd799cd595420e610 None 2.3 reported
5767 2020-01-01 14:49:07 directness.exe d22b78a76fc6082f393cc6dd088a4a27 None 3.1 reported
5766 2020-01-01 11:46:56 foldersize-2.6-x64.msi bba7c93a9fcaaf334448e2d018d79d5d 0/58 0.3 reported
5765 2020-01-01 11:14:29 tweaking.com-repairproxysettings.exe 7d480a402f9b00c3d506129ae1643e23 1/66 5.1 reported
5764 2020-01-01 08:26:04 shell-integration.exe e4c7814f04ef8b45a756119c3c9a6f0e 1/71 3.3 reported
5763 2020-01-01 06:10:39 un_a.exe 3ed3f72435878e87617d3a27ba5e8a7f 0/70 7.6 reported
5762 2019-12-31 21:44:52 msi9e83.tmp 617b03d97d28255966716cf6f0d2e207 0/63 3.4 reported
5761 2019-12-31 06:06:49 photocopy.exe ae1b8cc325ffa6e501f6c99089751b7e 0/72 0.3 reported
5760 2019-12-30 12:41:27 setup.exe 7609932c1652ba40c96e0d79a9d18ffb 0/70 1.3 reported
5759 2019-12-30 11:31:21 debotnet.exe 00b4b66a7a58450982a15fa8076f5743 8/71 5.3 reported
5758 2019-12-30 09:13:15 id_win.exe bb4cf0374ab813cbacadb725dd61b008 0/70 3.1 reported
5757 2019-12-30 04:09:06 Debotnet.exe 00b4b66a7a58450982a15fa8076f5743 7/71 4.6 reported
5756 2019-12-30 04:07:12 wget.exe 69b0ab5b80a4b8d38849367c2f457dc1 0/70 2.3 reported
5755 2019-12-29 21:57:38 tspdor1.exe d66f68cbca3bb2d69cd3e1a17989c295 59/72 10.0 reported
5754 2019-12-29 19:31:13 activator.exe 1fa1a7496f4010bdcda974d0df6c8fbf 50/69 10.0 reported
5753 2019-12-29 12:48:26 castsrv.exe d76d586780630935f5297ccea6c8cfd7 None 0.0 reported
5752 2019-12-28 15:28:03 pack.exe 8764e31e9229875ee59ad39a55744f22 None 2.6 reported
5751 2019-12-28 12:53:01 720p_1500k_271888881.mp4 5168b7ce2f3ba9103867e6fc1d6fce37 None 2.3 reported
5750 2019-12-28 06:43:39 autodetectutility.exe 4058315e623448e97eba06055993cd85 0/69 3.3 reported
5749 2019-12-28 02:37:34 horvigui_chessbot.exe 90615d10813c9922fdbb6778b6d444c1 41/72 10.0 reported
5748 2019-12-27 21:50:06 msie166.tmp f73fee09551b7779d0de83b54facaa96 None 2.8 reported
5747 2019-12-27 20:50:06 turboactivate.dll 88f61376407f0f5d97532b652bdd9f66 38/68 10.0 reported
5746 2019-12-27 20:45:18 soundboostersetup.exe ad6dc5d16c4ac9ccc7f7aa35eb16a2e4 0/67 3.6 reported
5745 2019-12-27 19:19:36 processhacker-2.39-setup.exe 54daad58cce5003bee58b28a4f465f49 19/71 10.0 reported
5744 2019-12-27 12:54:34 msi752.tmp f73fee09551b7779d0de83b54facaa96 None 2.8 reported
5743 2019-12-27 11:05:15 openscad-2019.05-x86-64-installer.exe 032d7d42afe1abf44d0f894255c985a0 0/70 5.7 reported
5742 2019-12-27 07:07:35 msi6f4d.tmp ce0a5f6f47ec69f439f6b52578085fb4 0/71 2.8 reported
5741 2019-12-26 19:29:33 launcher.exe c583697bd4dd96c915d9993d818697b9 0/71 1.0 reported
5740 2019-12-26 19:25:32 bcad3af7-6931-4595-a8d8-073d5917fe36.bat ac7001243f4c93a6ab400916e20ba00f None 2.3 reported
5739 2019-12-26 16:11:06 uninstall-igdm.exe f1db29caaf488dd1a1b780a68c2cb979 1/68 7.1 reported
5738 2019-12-26 10:23:14 putty-64bit-0.73-installer.msi a64da9e511b07f7deab633fb64b6535f 0/59 0.3 reported
5737 2019-12-26 09:33:50 dtliteinstaller.exe 40af8bed09bff955ba625b60a7065528 1/71 4.1 reported
5736 2019-12-26 09:22:02 pobierz_alternate_calculator_v3.440_0261707004.exe ed3520117eef67cb0c1d6a0a0ac9f7d7 10/67 7.6 reported
5735 2019-12-26 09:01:36 wir-machen-urlaub.odt b1e90752ea4fbe59c632537d33511d7d None 3.3 reported
5734 2019-12-26 00:10:59 pachisi.exe d6e637b6eddf6be95e361b5a6546e7fb 0/56 5.1 reported
5733 2019-12-26 00:09:21 deerhunt.exe 27df40326a9ccd6aa4200bd22812ab6d 0/57 3.6 reported
5732 2019-12-26 00:08:42 deerhunt.exe 27df40326a9ccd6aa4200bd22812ab6d 0/57 3.6 reported
5731 2019-12-25 21:14:16 cpcheckme_r598kwdx.exe 48980da8368191161ebba4189c32e22f 0/68 9.4 reported
5730 2019-12-25 20:22:08 cu_.exe 79f0030dd8cd4844c76b6553052324ea 6/69 10.0 reported
5729 2019-12-25 17:59:29 reimagerepair-1.exe a36c3ba7926bc9ff9a8512649e86c73f 10/70 10.0 reported
5728 2019-12-25 16:50:46 rootkitrevealer.exe ee738fe9bcdd605821002cec8c7206db 0/69 2.6 reported
5727 2019-12-25 08:02:14 deerhunt.exe 27df40326a9ccd6aa4200bd22812ab6d 0/57 3.6 reported
5726 2019-12-25 06:52:57 trainer-a703127e.exe b7f00c7a216f650512387b95e4dc8b74 None 3.5 reported

Recent URLs

ID Timestamp URL VT MalScore Status
5557 2019-12-02 06:18:35 de-lovoo.com/id493824 0/71 0.0 reported
4582 2019-09-11 11:34:53 http://senshi.com.br/wp-includes/js/us/amex/res1.php 0/71 0.0 reported
4581 2019-09-11 11:34:36 http://senshi.com.br/wp-includes/js/us/amex/res1.php 0/71 0.0 reported
4580 2019-09-11 11:34:51 http://senshi.com.br/wp-includes/js/us/amex/res1.php 0/71 0.0 reported
4579 2019-09-11 11:34:45 http://senshi.com.br/wp-includes/js/us/amex/res1.php None 0.0 reported
4578 2019-09-11 11:34:43 http://senshi.com.br/wp-includes/js/us/amex/res1.php 0/71 0.0 reported
4577 2019-09-11 11:34:52 http://senshi.com.br/wp-includes/js/us/amex/res1.php 0/71 0.0 reported
4576 2019-09-11 11:34:44 http://senshi.com.br/wp-includes/js/us/amex/res1.php None 0.0 reported
4575 2019-09-11 11:34:48 http://senshi.com.br/wp-includes/js/us/amex/res1.php 0/71 0.0 reported
4574 2019-09-11 11:34:39 http://senshi.com.br/wp-includes/js/us/amex/res1.php 0/71 0.0 reported
4573 2019-09-11 11:34:38 http://senshi.com.br/wp-includes/js/us/amex/res1.php 0/71 0.0 reported
4018 2019-09-03 18:02:47 http://l.email.eviteideas.com/rts/go2.aspx?h=200692&tp=i-H55-Ax-3zG-37c39i-1p-5z8nG-1c-Hwq-3707p3-1TPTHi&x=%7BLIST_ID%7D%7cdsadis@celgene.com%7c2860901446%7ci-H55-Ax-3zG-37c39i-1p-5z8nG-1c-Hwq-3707p3-1TPTHi 0/71 0.0 reported
3569 2019-07-18 16:52:13 https://www.cgl.ucsf.edu/chimera/download.html 0/66 0.0 reported
3341 2019-07-07 12:10:20 https://veriyti.com/1/ 0/70 0.0 reported
3340 2019-07-07 12:04:38 https://veriyti.com None 0.0 reported
2438 2019-04-17 11:50:16 http://vertravers.tk/index/?4831537102803 None 0.0 reported
2437 2019-04-17 11:50:01 http://vertravers.tk/index/?4831537102803 2/69 0.5 reported
2436 2019-04-17 11:50:13 http://vertravers.tk/index/?4831537102803 None 0.0 reported
2435 2019-04-17 11:50:03 http://vertravers.tk/index/?4831537102803 2/69 0.5 reported
2434 2019-04-17 11:50:07 http://vertravers.tk/index/?4831537102803 None 0.0 reported
2433 2019-04-17 11:50:01 http://vertravers.tk/index/?4831537102803 2/69 0.5 reported
2432 2019-04-17 11:50:13 http://vertravers.tk/index/?4831537102803 None 0.0 reported
2431 2019-04-17 11:50:07 http://vertravers.tk/index/?4831537102803 None 0.0 reported
2430 2019-04-17 11:50:11 http://vertravers.tk/index/?4831537102803 None 0.0 reported
2429 2019-04-17 11:50:03 http://vertravers.tk/index/?4831537102803 2/69 0.5 reported
1763 2019-02-21 00:48:15 http://loginstep2inbox.xyz None 0.0 reported
1762 2019-02-21 00:48:04 http://loginstep2inbox.xyz 0/66 0.0 reported
1761 2019-02-21 00:48:13 http://loginstep2inbox.xyz None 0.0 reported
1760 2019-02-21 00:48:07 http://loginstep2inbox.xyz 0/66 0.0 reported
1759 2019-02-21 00:48:02 http://loginstep2inbox.xyz 0/66 0.0 reported
1758 2019-02-21 00:48:09 http://loginstep2inbox.xyz 0/66 0.0 reported
1757 2019-02-21 00:48:04 http://loginstep2inbox.xyz 0/66 0.0 reported
1756 2019-02-21 00:48:08 http://loginstep2inbox.xyz 0/66 0.0 reported
1755 2019-02-21 00:48:14 http://loginstep2inbox.xyz None 0.0 reported
1754 2019-02-21 00:48:10 http://loginstep2inbox.xyz None 0.0 reported
1753 2019-02-21 00:30:05 http://oatextjournal.info/ None 0.0 reported
1752 2019-02-21 00:29:53 http://oatextjournal.info/ 0/66 0.0 reported
1751 2019-02-21 00:30:04 http://oatextjournal.info/ 0/66 0.0 reported
1750 2019-02-21 00:29:57 http://oatextjournal.info/ 0/66 0.0 reported
1749 2019-02-21 00:29:52 http://oatextjournal.info/ 0/66 0.0 reported
1748 2019-02-21 00:29:59 http://oatextjournal.info/ 0/66 0.0 reported
1747 2019-02-21 00:29:54 http://oatextjournal.info/ 0/66 0.0 reported
1746 2019-02-21 00:29:58 http://oatextjournal.info/ 0/66 0.0 reported
1745 2019-02-21 00:30:04 http://oatextjournal.info/ None 0.0 reported
1744 2019-02-21 00:30:04 http://oatextjournal.info/ 0/66 0.0 reported
1734 2019-02-19 20:19:40 jre-7u51-windows-x64_0289992738.exe None 0.0 reported
1733 2019-02-19 20:19:42 jre-7u51-windows-x64_0289992738.exe None 0.0 reported
1732 2019-02-19 20:19:47 jre-7u51-windows-x64_0289992738.exe None 0.0 reported
1731 2019-02-19 20:19:44 jre-7u51-windows-x64_0289992738.exe None 0.0 reported
1730 2019-02-19 20:19:39 jre-7u51-windows-x64_0289992738.exe None 0.0 reported
1729 2019-02-19 20:19:45 jre-7u51-windows-x64_0289992738.exe None 0.0 reported
1728 2019-02-19 20:19:37 jre-7u51-windows-x64_0289992738.exe None 0.0 reported
1727 2019-02-19 20:19:45 jre-7u51-windows-x64_0289992738.exe None 0.0 reported
1726 2019-02-19 20:19:39 jre-7u51-windows-x64_0289992738.exe None 0.0 reported
1725 2019-02-19 20:19:34 jre-7u51-windows-x64_0289992738.exe None 0.0 reported
1718 2019-02-19 02:23:50 http://d3dbo796zi9gf.cloudfront.net/55bw7o=l9g5xg/jdpdfreader2019.exe 0/66 0.0 reported
1717 2019-02-19 02:24:07 http://d3dbo796zi9gf.cloudfront.net/55bw7o=l9g5xg/jdpdfreader2019.exe 0/66 2.0 reported
1716 2019-02-19 02:24:11 http://d3dbo796zi9gf.cloudfront.net/55bw7o=l9g5xg/jdpdfreader2019.exe 0/66 2.0 reported
1715 2019-02-19 02:23:59 http://d3dbo796zi9gf.cloudfront.net/55bw7o=l9g5xg/jdpdfreader2019.exe 0/66 2.0 reported
1714 2019-02-19 02:23:43 http://d3dbo796zi9gf.cloudfront.net/55bw7o=l9g5xg/jdpdfreader2019.exe 0/66 0.0 reported
1713 2019-02-19 02:24:00 http://d3dbo796zi9gf.cloudfront.net/55bw7o=l9g5xg/jdpdfreader2019.exe 0/66 2.0 reported
1712 2019-02-19 02:24:04 http://d3dbo796zi9gf.cloudfront.net/55bw7o=l9g5xg/jdpdfreader2019.exe 0/66 2.0 reported
1711 2019-02-19 02:24:01 http://d3dbo796zi9gf.cloudfront.net/55bw7o=l9g5xg/jdpdfreader2019.exe 0/66 2.0 reported
1710 2019-02-19 02:24:05 http://d3dbo796zi9gf.cloudfront.net/55bw7o=l9g5xg/jdpdfreader2019.exe None 2.0 reported
1709 2019-02-19 02:23:57 http://d3dbo796zi9gf.cloudfront.net/55bw7o=l9g5xg/jdpdfreader2019.exe 0/66 0.0 reported
1708 2019-02-19 02:03:01 http://cdn.bytefence.com/rtop_setup.exe 3/66 0.5 reported
1707 2019-02-19 02:03:02 http://cdn.bytefence.com/rtop_setup.exe None 2.0 reported
1706 2019-02-19 02:03:16 http://cdn.bytefence.com/rtop_setup.exe 3/66 2.5 reported
1705 2019-02-19 02:02:54 http://cdn.bytefence.com/rtop_setup.exe 3/66 0.5 reported
1704 2019-02-19 02:02:53 http://cdn.bytefence.com/rtop_setup.exe 3/66 0.5 reported
1703 2019-02-19 02:02:54 http://cdn.bytefence.com/rtop_setup.exe 3/66 0.5 reported
1702 2019-02-19 02:03:04 http://cdn.bytefence.com/rtop_setup.exe None 2.0 reported
1701 2019-02-19 02:03:00 http://cdn.bytefence.com/rtop_setup.exe 3/66 0.5 reported
1700 2019-02-19 02:03:12 http://cdn.bytefence.com/rtop_setup.exe 3/66 2.5 reported
1699 2019-02-19 02:02:51 http://cdn.bytefence.com/rtop_setup.exe 3/66 0.5 reported
1697 2019-02-18 23:37:01 http://fixgreatfreshtheclicks.icu/p6suZZl0-E4IAtgOZc9AWa2__RpB0xbkyltsRxswoKo? 1/66 0.5 reported
1696 2019-02-18 23:36:49 http://fixgreatfreshtheclicks.icu/p6suZZl0-E4IAtgOZc9AWa2__RpB0xbkyltsRxswoKo? 1/66 0.5 reported
1695 2019-02-18 23:36:47 http://fixgreatfreshtheclicks.icu/p6suZZl0-E4IAtgOZc9AWa2__RpB0xbkyltsRxswoKo? 1/66 0.5 reported
1694 2019-02-18 23:36:56 http://fixgreatfreshtheclicks.icu/p6suZZl0-E4IAtgOZc9AWa2__RpB0xbkyltsRxswoKo? 1/66 0.5 reported
1693 2019-02-18 23:36:55 http://fixgreatfreshtheclicks.icu/p6suZZl0-E4IAtgOZc9AWa2__RpB0xbkyltsRxswoKo? 1/66 0.5 reported
1692 2019-02-18 23:36:55 http://fixgreatfreshtheclicks.icu/p6suZZl0-E4IAtgOZc9AWa2__RpB0xbkyltsRxswoKo? 1/66 0.5 reported
1691 2019-02-18 23:36:53 http://fixgreatfreshtheclicks.icu/p6suZZl0-E4IAtgOZc9AWa2__RpB0xbkyltsRxswoKo? 1/66 0.5 reported
1690 2019-02-18 23:36:59 http://fixgreatfreshtheclicks.icu/p6suZZl0-E4IAtgOZc9AWa2__RpB0xbkyltsRxswoKo? 1/66 0.5 reported
1689 2019-02-18 23:36:57 http://fixgreatfreshtheclicks.icu/p6suZZl0-E4IAtgOZc9AWa2__RpB0xbkyltsRxswoKo? 1/66 0.5 reported
1688 2019-02-18 23:36:47 http://fixgreatfreshtheclicks.icu/p6suZZl0-E4IAtgOZc9AWa2__RpB0xbkyltsRxswoKo? 1/66 0.5 reported
1644 2019-02-15 21:46:18 http://cdn.bytefence.com/rtop_setup.exe 3/66 2.5 reported
1643 2019-02-15 21:46:09 http://cdn.bytefence.com/rtop_setup.exe 3/66 0.5 reported
1642 2019-02-15 21:46:20 http://cdn.bytefence.com/rtop_setup.exe None 0.0 reported
1641 2019-02-15 21:46:21 http://cdn.bytefence.com/rtop_setup.exe 3/66 2.5 reported
1640 2019-02-15 21:46:28 http://cdn.bytefence.com/rtop_setup.exe 3/66 2.5 reported
1639 2019-02-15 21:46:39 http://cdn.bytefence.com/rtop_setup.exe 3/66 2.5 reported
1638 2019-02-15 21:46:20 http://cdn.bytefence.com/rtop_setup.exe None 2.0 reported
1637 2019-02-15 21:46:08 http://cdn.bytefence.com/rtop_setup.exe 3/66 0.5 reported
1636 2019-02-15 21:46:19 http://cdn.bytefence.com/rtop_setup.exe 3/66 0.5 reported
1635 2019-02-15 21:46:33 http://cdn.bytefence.com/rtop_setup.exe 3/66 2.5 reported
1613 2019-02-14 02:06:56 http://storage.googleapis.com/cbdau/cbdau.html None 0.0 reported

Recent PCAPs

No PCAPs to display on this page.